sensor_id;sensor_type;location;lat;lon;timestamp;P1;durP1;ratioP1;P2;durP2;ratioP2
31390;SDS011;18022;45.492;11.548;2022-11-24T00:00:24;10.00;;;9.00;;
31390;SDS011;18022;45.492;11.548;2022-11-24T00:02:50;11.82;;;8.38;;
31390;SDS011;18022;45.492;11.548;2022-11-24T00:05:16;10.10;;;8.60;;
31390;SDS011;18022;45.492;11.548;2022-11-24T00:07:42;11.13;;;9.00;;
31390;SDS011;18022;45.492;11.548;2022-11-24T00:10:08;10.73;;;9.63;;
31390;SDS011;18022;45.492;11.548;2022-11-24T00:12:34;9.70;;;8.75;;
31390;SDS011;18022;45.492;11.548;2022-11-24T00:14:59;11.02;;;9.30;;
31390;SDS011;18022;45.492;11.548;2022-11-24T00:17:25;8.38;;;7.57;;
31390;SDS011;18022;45.492;11.548;2022-11-24T00:19:53;8.40;;;7.63;;
31390;SDS011;18022;45.492;11.548;2022-11-24T00:22:19;9.48;;;8.48;;
31390;SDS011;18022;45.492;11.548;2022-11-24T00:24:44;10.25;;;8.02;;
31390;SDS011;18022;45.492;11.548;2022-11-24T00:27:10;9.45;;;8.45;;
31390;SDS011;18022;45.492;11.548;2022-11-24T00:29:36;9.90;;;8.90;;
31390;SDS011;18022;45.492;11.548;2022-11-24T00:32:01;10.07;;;8.98;;
31390;SDS011;18022;45.492;11.548;2022-11-24T00:34:30;12.00;;;8.60;;
31390;SDS011;18022;45.492;11.548;2022-11-24T00:36:56;12.27;;;8.77;;
31390;SDS011;18022;45.492;11.548;2022-11-24T00:39:22;10.20;;;9.07;;
31390;SDS011;18022;45.492;11.548;2022-11-24T00:41:47;10.95;;;9.27;;
31390;SDS011;18022;45.492;11.548;2022-11-24T00:44:13;10.98;;;8.73;;
31390;SDS011;18022;45.492;11.548;2022-11-24T00:46:39;9.75;;;8.75;;
31390;SDS011;18022;45.492;11.548;2022-11-24T00:49:05;11.30;;;9.88;;
31390;SDS011;18022;45.492;11.548;2022-11-24T00:51:31;13.85;;;10.10;;
31390;SDS011;18022;45.492;11.548;2022-11-24T00:53:58;12.95;;;10.55;;
31390;SDS011;18022;45.492;11.548;2022-11-24T00:56:25;12.63;;;9.47;;
31390;SDS011;18022;45.492;11.548;2022-11-24T00:58:51;10.57;;;8.48;;
31390;SDS011;18022;45.492;11.548;2022-11-24T01:01:19;9.68;;;8.48;;
31390;SDS011;18022;45.492;11.548;2022-11-24T01:03:46;8.05;;;7.25;;
31390;SDS011;18022;45.492;11.548;2022-11-24T01:06:19;8.30;;;7.47;;
31390;SDS011;18022;45.492;11.548;2022-11-24T01:08:47;9.68;;;7.55;;
31390;SDS011;18022;45.492;11.548;2022-11-24T01:11:14;11.00;;;7.80;;
31390;SDS011;18022;45.492;11.548;2022-11-24T01:13:41;11.57;;;7.82;;
31390;SDS011;18022;45.492;11.548;2022-11-24T01:16:14;11.38;;;7.70;;
31390;SDS011;18022;45.492;11.548;2022-11-24T01:21:11;8.07;;;7.28;;
31390;SDS011;18022;45.492;11.548;2022-11-24T01:23:37;8.30;;;7.50;;
31390;SDS011;18022;45.492;11.548;2022-11-24T01:26:04;8.43;;;7.47;;
31390;SDS011;18022;45.492;11.548;2022-11-24T01:28:30;8.20;;;7.40;;
31390;SDS011;18022;45.492;11.548;2022-11-24T01:31:00;9.93;;;7.30;;
31390;SDS011;18022;45.492;11.548;2022-11-24T01:33:28;7.93;;;7.13;;
31390;SDS011;18022;45.492;11.548;2022-11-24T01:35:55;6.90;;;6.30;;
31390;SDS011;18022;45.492;11.548;2022-11-24T01:38:21;6.50;;;5.90;;
31390;SDS011;18022;45.492;11.548;2022-11-24T01:40:47;7.40;;;6.70;;
31390;SDS011;18022;45.492;11.548;2022-11-24T01:43:16;18.20;;;8.25;;
31390;SDS011;18022;45.492;11.548;2022-11-24T01:45:43;18.65;;;7.45;;
31390;SDS011;18022;45.492;11.548;2022-11-24T01:48:17;25.13;;;8.30;;
31390;SDS011;18022;45.492;11.548;2022-11-24T01:51:19;44.38;;;9.20;;
31390;SDS011;18022;45.492;11.548;2022-11-24T01:53:55;9.82;;;8.10;;
31390;SDS011;18022;45.492;11.548;2022-11-24T01:56:24;13.55;;;7.80;;
31390;SDS011;18022;45.492;11.548;2022-11-24T01:58:51;25.77;;;8.07;;
31390;SDS011;18022;45.492;11.548;2022-11-24T02:01:22;8.32;;;7.45;;
31390;SDS011;18022;45.492;11.548;2022-11-24T02:03:48;18.38;;;7.10;;
31390;SDS011;18022;45.492;11.548;2022-11-24T02:06:18;19.98;;;8.38;;
31390;SDS011;18022;45.492;11.548;2022-11-24T02:08:52;9.45;;;8.45;;
31390;SDS011;18022;45.492;11.548;2022-11-24T02:11:27;10.93;;;8.52;;
31390;SDS011;18022;45.492;11.548;2022-11-24T02:13:57;8.75;;;7.63;;
31390;SDS011;18022;45.492;11.548;2022-11-24T02:16:23;9.38;;;7.75;;
31390;SDS011;18022;45.492;11.548;2022-11-24T02:18:49;7.32;;;6.63;;
31390;SDS011;18022;45.492;11.548;2022-11-24T02:21:15;7.25;;;6.55;;
31390;SDS011;18022;45.492;11.548;2022-11-24T02:23:43;7.28;;;6.57;;
31390;SDS011;18022;45.492;11.548;2022-11-24T02:26:44;6.65;;;6.05;;
31390;SDS011;18022;45.492;11.548;2022-11-24T02:29:05;6.53;;;5.93;;
31390;SDS011;18022;45.492;11.548;2022-11-24T02:31:31;8.27;;;7.05;;
31390;SDS011;18022;45.492;11.548;2022-11-24T02:33:57;8.63;;;7.15;;
31390;SDS011;18022;45.492;11.548;2022-11-24T02:36:23;9.77;;;7.43;;
31390;SDS011;18022;45.492;11.548;2022-11-24T02:38:49;5.25;;;4.82;;
31390;SDS011;18022;45.492;11.548;2022-11-24T02:41:16;4.70;;;4.30;;
31390;SDS011;18022;45.492;11.548;2022-11-24T02:43:48;5.82;;;5.32;;
31390;SDS011;18022;45.492;11.548;2022-11-24T02:46:22;7.50;;;6.38;;
31390;SDS011;18022;45.492;11.548;2022-11-24T02:48:48;6.63;;;6.05;;
31390;SDS011;18022;45.492;11.548;2022-11-24T02:51:14;6.60;;;5.90;;
31390;SDS011;18022;45.492;11.548;2022-11-24T02:53:39;5.70;;;5.25;;
31390;SDS011;18022;45.492;11.548;2022-11-24T02:56:05;4.80;;;4.38;;
31390;SDS011;18022;45.492;11.548;2022-11-24T02:58:31;5.30;;;4.90;;
31390;SDS011;18022;45.492;11.548;2022-11-24T03:00:57;7.45;;;5.28;;
31390;SDS011;18022;45.492;11.548;2022-11-24T03:03:23;7.60;;;6.35;;
31390;SDS011;18022;45.492;11.548;2022-11-24T03:05:50;7.13;;;6.45;;
31390;SDS011;18022;45.492;11.548;2022-11-24T03:08:15;7.38;;;6.68;;
31390;SDS011;18022;45.492;11.548;2022-11-24T03:10:42;43.05;;;7.72;;
31390;SDS011;18022;45.492;11.548;2022-11-24T03:13:07;7.90;;;6.80;;
31390;SDS011;18022;45.492;11.548;2022-11-24T03:15:33;11.30;;;6.65;;
31390;SDS011;18022;45.492;11.548;2022-11-24T03:17:59;16.45;;;6.35;;
31390;SDS011;18022;45.492;11.548;2022-11-24T03:20:25;6.80;;;5.45;;
31390;SDS011;18022;45.492;11.548;2022-11-24T03:22:52;6.32;;;5.78;;
31390;SDS011;18022;45.492;11.548;2022-11-24T03:25:17;17.10;;;6.45;;
31390;SDS011;18022;45.492;11.548;2022-11-24T03:27:43;7.50;;;6.80;;
31390;SDS011;18022;45.492;11.548;2022-11-24T03:30:10;7.55;;;6.75;;
31390;SDS011;18022;45.492;11.548;2022-11-24T03:32:36;5.75;;;5.25;;
31390;SDS011;18022;45.492;11.548;2022-11-24T03:35:02;6.78;;;6.18;;
31390;SDS011;18022;45.492;11.548;2022-11-24T03:37:28;5.60;;;5.10;;
31390;SDS011;18022;45.492;11.548;2022-11-24T03:39:54;7.60;;;5.30;;
31390;SDS011;18022;45.492;11.548;2022-11-24T03:42:20;5.70;;;5.10;;
31390;SDS011;18022;45.492;11.548;2022-11-24T03:44:46;19.85;;;6.28;;
31390;SDS011;18022;45.492;11.548;2022-11-24T03:47:11;33.65;;;6.18;;
31390;SDS011;18022;45.492;11.548;2022-11-24T03:49:37;6.95;;;6.25;;
31390;SDS011;18022;45.492;11.548;2022-11-24T03:52:04;6.75;;;6.05;;
31390;SDS011;18022;45.492;11.548;2022-11-24T03:54:30;5.95;;;5.45;;
31390;SDS011;18022;45.492;11.548;2022-11-24T03:56:56;6.75;;;6.15;;
31390;SDS011;18022;45.492;11.548;2022-11-24T03:59:21;6.90;;;6.20;;
31390;SDS011;18022;45.492;11.548;2022-11-24T04:01:47;6.10;;;5.60;;
31390;SDS011;18022;45.492;11.548;2022-11-24T04:04:13;10.38;;;6.50;;
31390;SDS011;18022;45.492;11.548;2022-11-24T04:06:39;7.78;;;6.78;;
31390;SDS011;18022;45.492;11.548;2022-11-24T04:09:04;6.15;;;5.55;;
31390;SDS011;18022;45.492;11.548;2022-11-24T04:11:30;12.10;;;5.95;;
31390;SDS011;18022;45.492;11.548;2022-11-24T04:14:14;14.85;;;5.95;;
31390;SDS011;18022;45.492;11.548;2022-11-24T04:16:40;7.80;;;6.40;;
31390;SDS011;18022;45.492;11.548;2022-11-24T04:19:06;7.95;;;6.53;;
31390;SDS011;18022;45.492;11.548;2022-11-24T04:21:31;8.10;;;6.20;;
31390;SDS011;18022;45.492;11.548;2022-11-24T04:23:57;6.47;;;5.70;;
31390;SDS011;18022;45.492;11.548;2022-11-24T04:26:23;7.43;;;5.47;;
31390;SDS011;18022;45.492;11.548;2022-11-24T04:28:48;5.07;;;4.68;;
31390;SDS011;18022;45.492;11.548;2022-11-24T04:31:14;18.35;;;5.90;;
31390;SDS011;18022;45.492;11.548;2022-11-24T04:33:40;6.55;;;5.95;;
31390;SDS011;18022;45.492;11.548;2022-11-24T04:36:06;8.32;;;6.65;;
31390;SDS011;18022;45.492;11.548;2022-11-24T04:38:31;31.45;;;7.65;;
31390;SDS011;18022;45.492;11.548;2022-11-24T04:41:00;8.50;;;7.60;;
31390;SDS011;18022;45.492;11.548;2022-11-24T04:43:27;6.57;;;5.88;;
31390;SDS011;18022;45.492;11.548;2022-11-24T04:45:53;8.95;;;6.85;;
31390;SDS011;18022;45.492;11.548;2022-11-24T04:48:19;13.80;;;5.50;;
31390;SDS011;18022;45.492;11.548;2022-11-24T04:50:45;7.85;;;5.78;;
31390;SDS011;18022;45.492;11.548;2022-11-24T04:53:11;8.43;;;6.32;;
31390;SDS011;18022;45.492;11.548;2022-11-24T04:55:37;12.50;;;6.10;;
31390;SDS011;18022;45.492;11.548;2022-11-24T04:58:11;6.60;;;5.70;;
31390;SDS011;18022;45.492;11.548;2022-11-24T05:00:37;6.45;;;5.78;;
31390;SDS011;18022;45.492;11.548;2022-11-24T05:03:04;7.43;;;4.72;;
31390;SDS011;18022;45.492;11.548;2022-11-24T05:05:30;6.00;;;5.00;;
31390;SDS011;18022;45.492;11.548;2022-11-24T05:07:59;5.15;;;4.75;;
31390;SDS011;18022;45.492;11.548;2022-11-24T05:10:25;7.40;;;5.03;;
31390;SDS011;18022;45.492;11.548;2022-11-24T05:13:04;4.93;;;4.50;;
31390;SDS011;18022;45.492;11.548;2022-11-24T05:15:38;43.65;;;9.13;;
31390;SDS011;18022;45.492;11.548;2022-11-24T05:18:05;12.43;;;7.72;;
31390;SDS011;18022;45.492;11.548;2022-11-24T05:20:32;9.80;;;7.57;;
31390;SDS011;18022;45.492;11.548;2022-11-24T05:23:03;6.60;;;6.00;;
31390;SDS011;18022;45.492;11.548;2022-11-24T05:25:30;4.43;;;4.13;;
31390;SDS011;18022;45.492;11.548;2022-11-24T05:27:59;4.40;;;3.90;;
31390;SDS011;18022;45.492;11.548;2022-11-24T05:30:26;6.35;;;3.92;;
31390;SDS011;18022;45.492;11.548;2022-11-24T05:32:53;5.22;;;4.72;;
31390;SDS011;18022;45.492;11.548;2022-11-24T05:35:19;5.60;;;5.00;;
31390;SDS011;18022;45.492;11.548;2022-11-24T05:37:45;13.45;;;5.35;;
31390;SDS011;18022;45.492;11.548;2022-11-24T05:40:11;13.20;;;5.03;;
31390;SDS011;18022;45.492;11.548;2022-11-24T05:42:37;8.57;;;6.65;;
31390;SDS011;18022;45.492;11.548;2022-11-24T05:45:07;12.35;;;5.55;;
31390;SDS011;18022;45.492;11.548;2022-11-24T05:47:41;8.77;;;6.30;;
31390;SDS011;18022;45.492;11.548;2022-11-24T05:50:08;11.85;;;7.15;;
31390;SDS011;18022;45.492;11.548;2022-11-24T05:52:35;7.28;;;5.60;;
31390;SDS011;18022;45.492;11.548;2022-11-24T05:55:00;6.32;;;5.45;;
31390;SDS011;18022;45.492;11.548;2022-11-24T05:57:26;8.90;;;7.28;;
31390;SDS011;18022;45.492;11.548;2022-11-24T05:59:52;8.45;;;6.90;;
31390;SDS011;18022;45.492;11.548;2022-11-24T06:02:18;5.22;;;4.72;;
31390;SDS011;18022;45.492;11.548;2022-11-24T06:04:43;6.07;;;5.47;;
31390;SDS011;18022;45.492;11.548;2022-11-24T06:07:12;10.85;;;6.60;;
31390;SDS011;18022;45.492;11.548;2022-11-24T06:09:38;6.50;;;5.60;;
31390;SDS011;18022;45.492;11.548;2022-11-24T06:12:05;6.32;;;5.10;;
31390;SDS011;18022;45.492;11.548;2022-11-24T06:14:32;8.57;;;4.60;;
31390;SDS011;18022;45.492;11.548;2022-11-24T06:16:58;4.13;;;3.72;;
31390;SDS011;18022;45.492;11.548;2022-11-24T06:19:23;5.60;;;4.43;;
31390;SDS011;18022;45.492;11.548;2022-11-24T06:21:49;6.00;;;4.95;;
31390;SDS011;18022;45.492;11.548;2022-11-24T06:24:15;11.68;;;6.30;;
31390;SDS011;18022;45.492;11.548;2022-11-24T06:26:40;6.20;;;5.57;;
31390;SDS011;18022;45.492;11.548;2022-11-24T06:29:06;21.40;;;6.57;;
31390;SDS011;18022;45.492;11.548;2022-11-24T06:31:32;7.93;;;6.82;;
31390;SDS011;18022;45.492;11.548;2022-11-24T06:33:58;16.75;;;9.70;;
31390;SDS011;18022;45.492;11.548;2022-11-24T06:36:24;9.63;;;7.50;;
31390;SDS011;18022;45.492;11.548;2022-11-24T06:38:50;7.80;;;5.40;;
31390;SDS011;18022;45.492;11.548;2022-11-24T06:41:16;5.85;;;5.25;;
31390;SDS011;18022;45.492;11.548;2022-11-24T06:43:42;5.25;;;4.75;;
31390;SDS011;18022;45.492;11.548;2022-11-24T06:46:09;5.15;;;4.65;;
31390;SDS011;18022;45.492;11.548;2022-11-24T06:48:35;6.47;;;4.70;;
31390;SDS011;18022;45.492;11.548;2022-11-24T06:51:02;5.07;;;4.32;;
31390;SDS011;18022;45.492;11.548;2022-11-24T06:53:30;6.72;;;4.72;;
31390;SDS011;18022;45.492;11.548;2022-11-24T06:56:03;9.15;;;7.32;;
31390;SDS011;18022;45.492;11.548;2022-11-24T06:58:33;6.90;;;6.00;;
31390;SDS011;18022;45.492;11.548;2022-11-24T07:00:59;5.50;;;4.60;;
31390;SDS011;18022;45.492;11.548;2022-11-24T07:03:25;6.68;;;5.05;;
31390;SDS011;18022;45.492;11.548;2022-11-24T07:05:55;4.93;;;4.43;;
31390;SDS011;18022;45.492;11.548;2022-11-24T07:08:21;4.85;;;4.38;;
31390;SDS011;18022;45.492;11.548;2022-11-24T07:10:47;5.28;;;4.78;;
31390;SDS011;18022;45.492;11.548;2022-11-24T07:13:12;5.93;;;4.78;;
31390;SDS011;18022;45.492;11.548;2022-11-24T07:15:38;5.60;;;5.10;;
31390;SDS011;18022;45.492;11.548;2022-11-24T07:18:04;7.47;;;5.82;;
31390;SDS011;18022;45.492;11.548;2022-11-24T07:20:29;9.45;;;6.32;;
31390;SDS011;18022;45.492;11.548;2022-11-24T07:22:55;5.80;;;5.20;;
31390;SDS011;18022;45.492;11.548;2022-11-24T07:25:22;5.55;;;5.00;;
31390;SDS011;18022;45.492;11.548;2022-11-24T07:27:48;5.53;;;5.03;;
31390;SDS011;18022;45.492;11.548;2022-11-24T07:30:19;7.47;;;5.03;;
31390;SDS011;18022;45.492;11.548;2022-11-24T07:32:44;5.65;;;4.88;;
31390;SDS011;18022;45.492;11.548;2022-11-24T07:35:10;19.67;;;5.28;;
31390;SDS011;18022;45.492;11.548;2022-11-24T07:37:35;12.32;;;5.90;;
31390;SDS011;18022;45.492;11.548;2022-11-24T07:40:01;8.20;;;6.50;;
31390;SDS011;18022;45.492;11.548;2022-11-24T07:42:27;6.07;;;5.45;;
31390;SDS011;18022;45.492;11.548;2022-11-24T07:44:53;7.15;;;6.10;;
31390;SDS011;18022;45.492;11.548;2022-11-24T07:47:18;5.95;;;5.00;;
31390;SDS011;18022;45.492;11.548;2022-11-24T07:49:44;8.02;;;6.53;;
31390;SDS011;18022;45.492;11.548;2022-11-24T07:52:09;5.90;;;5.30;;
31390;SDS011;18022;45.492;11.548;2022-11-24T07:54:35;7.85;;;6.70;;
31390;SDS011;18022;45.492;11.548;2022-11-24T07:57:01;8.10;;;5.72;;
31390;SDS011;18022;45.492;11.548;2022-11-24T07:59:26;5.60;;;5.10;;
31390;SDS011;18022;45.492;11.548;2022-11-24T08:01:52;6.07;;;4.97;;
31390;SDS011;18022;45.492;11.548;2022-11-24T08:04:18;4.85;;;4.45;;
31390;SDS011;18022;45.492;11.548;2022-11-24T08:06:43;5.47;;;4.97;;
31390;SDS011;18022;45.492;11.548;2022-11-24T08:09:09;12.02;;;7.28;;
31390;SDS011;18022;45.492;11.548;2022-11-24T08:11:35;6.70;;;6.00;;
31390;SDS011;18022;45.492;11.548;2022-11-24T08:14:00;7.68;;;6.25;;
31390;SDS011;18022;45.492;11.548;2022-11-24T08:16:26;6.63;;;5.93;;
31390;SDS011;18022;45.492;11.548;2022-11-24T08:18:53;5.85;;;5.35;;
31390;SDS011;18022;45.492;11.548;2022-11-24T08:21:19;9.35;;;6.93;;
31390;SDS011;18022;45.492;11.548;2022-11-24T08:23:47;6.75;;;6.05;;
31390;SDS011;18022;45.492;11.548;2022-11-24T08:26:14;6.93;;;5.93;;
31390;SDS011;18022;45.492;11.548;2022-11-24T08:28:43;6.40;;;5.80;;
31390;SDS011;18022;45.492;11.548;2022-11-24T08:31:13;9.43;;;7.87;;
31390;SDS011;18022;45.492;11.548;2022-11-24T08:33:42;9.00;;;7.88;;
31390;SDS011;18022;45.492;11.548;2022-11-24T08:36:10;10.93;;;6.93;;
31390;SDS011;18022;45.492;11.548;2022-11-24T08:38:37;9.65;;;7.55;;
31390;SDS011;18022;45.492;11.548;2022-11-24T08:41:07;9.18;;;7.38;;
31390;SDS011;18022;45.492;11.548;2022-11-24T08:43:34;12.05;;;8.15;;
31390;SDS011;18022;45.492;11.548;2022-11-24T08:46:01;10.07;;;7.78;;
31390;SDS011;18022;45.492;11.548;2022-11-24T08:48:31;12.57;;;9.30;;
31390;SDS011;18022;45.492;11.548;2022-11-24T08:50:57;15.13;;;9.75;;
31390;SDS011;18022;45.492;11.548;2022-11-24T08:53:24;10.88;;;9.07;;
31390;SDS011;18022;45.492;11.548;2022-11-24T08:55:50;14.77;;;8.43;;
31390;SDS011;18022;45.492;11.548;2022-11-24T08:58:16;11.10;;;8.35;;
31390;SDS011;18022;45.492;11.548;2022-11-24T09:00:42;11.18;;;7.75;;
31390;SDS011;18022;45.492;11.548;2022-11-24T09:03:08;10.13;;;7.47;;
31390;SDS011;18022;45.492;11.548;2022-11-24T09:05:36;13.35;;;8.75;;
31390;SDS011;18022;45.492;11.548;2022-11-24T09:08:02;12.52;;;9.05;;
31390;SDS011;18022;45.492;11.548;2022-11-24T09:10:28;10.85;;;8.98;;
31390;SDS011;18022;45.492;11.548;2022-11-24T09:12:53;12.57;;;9.15;;
31390;SDS011;18022;45.492;11.548;2022-11-24T09:15:19;13.57;;;8.55;;
31390;SDS011;18022;45.492;11.548;2022-11-24T09:17:45;13.82;;;9.32;;
31390;SDS011;18022;45.492;11.548;2022-11-24T09:20:11;14.20;;;10.30;;
31390;SDS011;18022;45.492;11.548;2022-11-24T09:22:37;11.82;;;8.60;;
31390;SDS011;18022;45.492;11.548;2022-11-24T09:25:05;13.35;;;8.77;;
31390;SDS011;18022;45.492;11.548;2022-11-24T09:27:31;13.15;;;9.10;;
31390;SDS011;18022;45.492;11.548;2022-11-24T09:29:57;10.60;;;8.68;;
31390;SDS011;18022;45.492;11.548;2022-11-24T09:32:22;13.02;;;8.18;;
31390;SDS011;18022;45.492;11.548;2022-11-24T09:34:51;11.70;;;8.50;;
31390;SDS011;18022;45.492;11.548;2022-11-24T09:37:17;10.57;;;8.40;;
31390;SDS011;18022;45.492;11.548;2022-11-24T09:39:43;11.88;;;9.43;;
31390;SDS011;18022;45.492;11.548;2022-11-24T09:45:04;13.95;;;9.98;;
31390;SDS011;18022;45.492;11.548;2022-11-24T09:50:31;11.68;;;8.65;;
31390;SDS011;18022;45.492;11.548;2022-11-24T09:55:32;14.20;;;8.30;;
31390;SDS011;18022;45.492;11.548;2022-11-24T10:00:48;10.73;;;8.82;;
31390;SDS011;18022;45.492;11.548;2022-11-24T10:03:25;15.10;;;10.25;;
31390;SDS011;18022;45.492;11.548;2022-11-24T10:05:55;17.63;;;8.95;;
31390;SDS011;18022;45.492;11.548;2022-11-24T10:08:26;19.13;;;14.07;;
31390;SDS011;18022;45.492;11.548;2022-11-24T10:10:58;19.73;;;12.85;;
31390;SDS011;18022;45.492;11.548;2022-11-24T10:13:34;17.80;;;9.88;;
31390;SDS011;18022;45.492;11.548;2022-11-24T10:26:50;11.63;;;7.03;;
31390;SDS011;18022;45.492;11.548;2022-11-24T10:29:40;7.50;;;5.95;;
31390;SDS011;18022;45.492;11.548;2022-11-24T10:32:13;9.18;;;6.32;;
31390;SDS011;18022;45.492;11.548;2022-11-24T10:34:45;10.05;;;7.95;;
31390;SDS011;18022;45.492;11.548;2022-11-24T10:37:34;9.98;;;8.45;;
31390;SDS011;18022;45.492;11.548;2022-11-24T10:40:23;11.32;;;7.50;;
31390;SDS011;18022;45.492;11.548;2022-11-24T10:43:12;10.23;;;6.00;;
31390;SDS011;18022;45.492;11.548;2022-11-24T10:45:38;13.20;;;9.68;;
31390;SDS011;18022;45.492;11.548;2022-11-24T10:48:06;16.48;;;12.32;;
31390;SDS011;18022;45.492;11.548;2022-11-24T10:50:55;14.27;;;9.88;;
31390;SDS011;18022;45.492;11.548;2022-11-24T10:53:29;11.63;;;9.43;;
31390;SDS011;18022;45.492;11.548;2022-11-24T10:58:27;13.05;;;8.50;;
31390;SDS011;18022;45.492;11.548;2022-11-24T11:01:00;11.10;;;8.15;;
31390;SDS011;18022;45.492;11.548;2022-11-24T11:03:47;22.13;;;8.63;;
31390;SDS011;18022;45.492;11.548;2022-11-24T11:06:20;12.30;;;8.70;;
31390;SDS011;18022;45.492;11.548;2022-11-24T11:11:32;12.15;;;7.82;;
31390;SDS011;18022;45.492;11.548;2022-11-24T11:14:06;10.23;;;7.55;;
31390;SDS011;18022;45.492;11.548;2022-11-24T11:16:37;9.38;;;7.63;;
31390;SDS011;18022;45.492;11.548;2022-11-24T11:21:59;9.38;;;7.20;;
31390;SDS011;18022;45.492;11.548;2022-11-24T11:24:34;8.75;;;7.22;;
31390;SDS011;18022;45.492;11.548;2022-11-24T11:27:03;10.50;;;7.87;;
31390;SDS011;18022;45.492;11.548;2022-11-24T11:29:40;11.77;;;10.40;;
31390;SDS011;18022;45.492;11.548;2022-11-24T11:32:25;19.98;;;16.20;;
31390;SDS011;18022;45.492;11.548;2022-11-24T11:34:52;23.17;;;18.58;;
31390;SDS011;18022;45.492;11.548;2022-11-24T11:37:20;13.20;;;9.02;;
31390;SDS011;18022;45.492;11.548;2022-11-24T11:39:49;12.38;;;8.65;;
31390;SDS011;18022;45.492;11.548;2022-11-24T11:42:25;13.73;;;11.05;;
31390;SDS011;18022;45.492;11.548;2022-11-24T11:47:57;11.82;;;10.15;;
31390;SDS011;18022;45.492;11.548;2022-11-24T11:56:05;16.60;;;10.27;;
31390;SDS011;18022;45.492;11.548;2022-11-24T11:58:42;13.18;;;11.07;;
31390;SDS011;18022;45.492;11.548;2022-11-24T12:01:36;14.45;;;10.23;;
31390;SDS011;18022;45.492;11.548;2022-11-24T12:04:12;14.05;;;10.60;;
31390;SDS011;18022;45.492;11.548;2022-11-24T12:23:50;23.63;;;15.65;;
31390;SDS011;18022;45.492;11.548;2022-11-24T12:36:49;21.63;;;15.15;;
31390;SDS011;18022;45.492;11.548;2022-11-24T12:39:29;27.02;;;18.13;;
31390;SDS011;18022;45.492;11.548;2022-11-24T12:42:05;18.15;;;14.00;;
31390;SDS011;18022;45.492;11.548;2022-11-24T12:47:55;15.00;;;11.07;;
31390;SDS011;18022;45.492;11.548;2022-11-24T12:50:49;14.60;;;10.93;;
31390;SDS011;18022;45.492;11.548;2022-11-24T12:55:50;26.17;;;18.83;;
31390;SDS011;18022;45.492;11.548;2022-11-24T13:01:06;17.27;;;13.25;;
31390;SDS011;18022;45.492;11.548;2022-11-24T13:06:56;18.60;;;12.23;;
31390;SDS011;18022;45.492;11.548;2022-11-24T13:09:27;14.73;;;12.40;;
31390;SDS011;18022;45.492;11.548;2022-11-24T13:11:53;17.27;;;12.93;;
31390;SDS011;18022;45.492;11.548;2022-11-24T13:14:42;17.33;;;13.50;;
31390;SDS011;18022;45.492;11.548;2022-11-24T13:17:29;14.45;;;12.13;;
31390;SDS011;18022;45.492;11.548;2022-11-24T13:20:13;27.10;;;18.92;;
31390;SDS011;18022;45.492;11.548;2022-11-24T13:25:27;27.60;;;22.98;;
31390;SDS011;18022;45.492;11.548;2022-11-24T13:27:55;39.38;;;35.08;;
31390;SDS011;18022;45.492;11.548;2022-11-24T13:35:27;18.02;;;14.25;;
31390;SDS011;18022;45.492;11.548;2022-11-24T13:37:53;21.73;;;16.63;;
31390;SDS011;18022;45.492;11.548;2022-11-24T13:53:33;19.77;;;14.93;;
31390;SDS011;18022;45.492;11.548;2022-11-24T14:03:32;19.63;;;14.27;;
31390;SDS011;18022;45.492;11.548;2022-11-24T14:06:01;19.20;;;15.10;;
31390;SDS011;18022;45.492;11.548;2022-11-24T14:08:28;17.27;;;13.85;;
31390;SDS011;18022;45.492;11.548;2022-11-24T14:10:57;21.02;;;16.40;;
31390;SDS011;18022;45.492;11.548;2022-11-24T14:13:26;21.63;;;16.33;;
31390;SDS011;18022;45.492;11.548;2022-11-24T14:18:40;22.25;;;17.73;;
31390;SDS011;18022;45.492;11.548;2022-11-24T14:23:40;23.38;;;18.23;;
31390;SDS011;18022;45.492;11.548;2022-11-24T14:26:15;27.52;;;19.15;;
31390;SDS011;18022;45.492;11.548;2022-11-24T14:28:47;26.77;;;19.70;;
31390;SDS011;18022;45.492;11.548;2022-11-24T14:31:18;26.30;;;20.73;;
31390;SDS011;18022;45.492;11.548;2022-11-24T14:36:31;32.05;;;20.25;;
31390;SDS011;18022;45.492;11.548;2022-11-24T14:38:57;26.30;;;20.55;;
31390;SDS011;18022;45.492;11.548;2022-11-24T14:41:23;28.98;;;20.98;;
31390;SDS011;18022;45.492;11.548;2022-11-24T14:44:05;27.17;;;21.10;;
31390;SDS011;18022;45.492;11.548;2022-11-24T14:46:37;28.88;;;20.70;;
31390;SDS011;18022;45.492;11.548;2022-11-24T14:49:03;27.15;;;19.48;;
31390;SDS011;18022;45.492;11.548;2022-11-24T14:51:29;29.45;;;21.02;;
31390;SDS011;18022;45.492;11.548;2022-11-24T14:54:02;30.70;;;21.35;;
31390;SDS011;18022;45.492;11.548;2022-11-24T14:56:40;28.08;;;21.35;;
31390;SDS011;18022;45.492;11.548;2022-11-24T14:59:23;27.17;;;20.88;;
31390;SDS011;18022;45.492;11.548;2022-11-24T15:04:23;26.02;;;20.45;;
31390;SDS011;18022;45.492;11.548;2022-11-24T15:12:57;24.65;;;17.50;;
31390;SDS011;18022;45.492;11.548;2022-11-24T15:17:28;26.00;;;17.38;;
31390;SDS011;18022;45.492;11.548;2022-11-24T15:19:59;22.90;;;18.02;;
31390;SDS011;18022;45.492;11.548;2022-11-24T15:22:39;28.00;;;19.58;;
31390;SDS011;18022;45.492;11.548;2022-11-24T15:28:04;25.08;;;18.48;;
31390;SDS011;18022;45.492;11.548;2022-11-24T15:30:30;27.67;;;20.38;;
31390;SDS011;18022;45.492;11.548;2022-11-24T15:32:59;22.63;;;18.65;;
31390;SDS011;18022;45.492;11.548;2022-11-24T15:35:25;26.27;;;18.70;;
31390;SDS011;18022;45.492;11.548;2022-11-24T15:37:54;26.83;;;19.50;;
31390;SDS011;18022;45.492;11.548;2022-11-24T15:40:19;29.55;;;19.73;;
31390;SDS011;18022;45.492;11.548;2022-11-24T15:42:52;27.52;;;20.40;;
31390;SDS011;18022;45.492;11.548;2022-11-24T15:45:20;27.17;;;19.73;;
31390;SDS011;18022;45.492;11.548;2022-11-24T15:47:47;26.73;;;19.38;;
31390;SDS011;18022;45.492;11.548;2022-11-24T15:50:13;26.02;;;19.80;;
31390;SDS011;18022;45.492;11.548;2022-11-24T15:52:40;25.83;;;19.95;;
31390;SDS011;18022;45.492;11.548;2022-11-24T15:55:09;26.95;;;20.30;;
31390;SDS011;18022;45.492;11.548;2022-11-24T15:57:41;29.27;;;23.27;;
31390;SDS011;18022;45.492;11.548;2022-11-24T16:00:09;24.98;;;20.33;;
31390;SDS011;18022;45.492;11.548;2022-11-24T16:05:11;26.23;;;14.88;;
31390;SDS011;18022;45.492;11.548;2022-11-24T16:07:37;27.38;;;20.23;;
31390;SDS011;18022;45.492;11.548;2022-11-24T16:10:04;28.23;;;20.70;;
31390;SDS011;18022;45.492;11.548;2022-11-24T16:12:31;24.52;;;20.08;;
31390;SDS011;18022;45.492;11.548;2022-11-24T16:14:57;25.48;;;19.40;;
31390;SDS011;18022;45.492;11.548;2022-11-24T16:17:23;26.67;;;19.92;;
31390;SDS011;18022;45.492;11.548;2022-11-24T16:19:49;27.92;;;20.63;;
31390;SDS011;18022;45.492;11.548;2022-11-24T16:22:14;31.02;;;20.40;;
31390;SDS011;18022;45.492;11.548;2022-11-24T16:24:40;25.27;;;20.20;;
31390;SDS011;18022;45.492;11.548;2022-11-24T16:27:06;28.80;;;23.33;;
31390;SDS011;18022;45.492;11.548;2022-11-24T16:29:31;29.23;;;21.50;;
31390;SDS011;18022;45.492;11.548;2022-11-24T16:31:57;28.48;;;20.25;;
31390;SDS011;18022;45.492;11.548;2022-11-24T16:34:23;27.02;;;20.42;;
31390;SDS011;18022;45.492;11.548;2022-11-24T16:36:49;30.25;;;20.58;;
31390;SDS011;18022;45.492;11.548;2022-11-24T16:39:14;29.58;;;20.80;;
31390;SDS011;18022;45.492;11.548;2022-11-24T16:41:40;27.98;;;20.92;;
31390;SDS011;18022;45.492;11.548;2022-11-24T16:44:06;29.50;;;21.25;;